sensor_id;sensor_type;location;lat;lon;timestamp;P1;durP1;ratioP1;P2;durP2;ratioP2
36315;SDS011;22343;50.820;2.666;2023-04-01T00:01:41;7.97;;;2.83;;
36315;SDS011;22343;50.820;2.666;2023-04-01T00:04:26;6.27;;;2.70;;
36315;SDS011;22343;50.820;2.666;2023-04-01T00:07:10;5.20;;;2.73;;
36315;SDS011;22343;50.820;2.666;2023-04-01T00:09:54;7.57;;;3.13;;
36315;SDS011;22343;50.820;2.666;2023-04-01T00:12:39;5.30;;;2.90;;
36315;SDS011;22343;50.820;2.666;2023-04-01T00:15:24;8.43;;;3.03;;
36315;SDS011;22343;50.820;2.666;2023-04-01T00:18:08;5.40;;;2.87;;
36315;SDS011;22343;50.820;2.666;2023-04-01T00:20:53;4.57;;;2.77;;
36315;SDS011;22343;50.820;2.666;2023-04-01T00:23:37;5.10;;;2.90;;
36315;SDS011;22343;50.820;2.666;2023-04-01T00:26:21;6.00;;;3.37;;
36315;SDS011;22343;50.820;2.666;2023-04-01T00:29:06;6.93;;;3.60;;
36315;SDS011;22343;50.820;2.666;2023-04-01T00:31:51;9.23;;;3.70;;
36315;SDS011;22343;50.820;2.666;2023-04-01T00:34:35;8.27;;;3.60;;
36315;SDS011;22343;50.820;2.666;2023-04-01T00:37:19;8.57;;;3.33;;
36315;SDS011;22343;50.820;2.666;2023-04-01T00:40:05;6.60;;;3.80;;
36315;SDS011;22343;50.820;2.666;2023-04-01T00:42:51;12.63;;;3.50;;
36315;SDS011;22343;50.820;2.666;2023-04-01T00:45:36;10.07;;;4.07;;
36315;SDS011;22343;50.820;2.666;2023-04-01T00:48:23;7.90;;;3.90;;
36315;SDS011;22343;50.820;2.666;2023-04-01T00:51:15;7.67;;;3.90;;
36315;SDS011;22343;50.820;2.666;2023-04-01T00:54:02;7.03;;;4.00;;
36315;SDS011;22343;50.820;2.666;2023-04-01T00:56:48;8.17;;;3.90;;
36315;SDS011;22343;50.820;2.666;2023-04-01T00:59:37;7.07;;;4.20;;
36315;SDS011;22343;50.820;2.666;2023-04-01T01:02:24;6.53;;;4.07;;
36315;SDS011;22343;50.820;2.666;2023-04-01T01:05:11;8.03;;;4.27;;
36315;SDS011;22343;50.820;2.666;2023-04-01T01:08:01;8.13;;;5.10;;
36315;SDS011;22343;50.820;2.666;2023-04-01T01:10:48;9.63;;;5.20;;
36315;SDS011;22343;50.820;2.666;2023-04-01T01:13:36;12.23;;;5.10;;
36315;SDS011;22343;50.820;2.666;2023-04-01T01:16:31;9.73;;;5.27;;
36315;SDS011;22343;50.820;2.666;2023-04-01T01:22:32;12.00;;;5.87;;
36315;SDS011;22343;50.820;2.666;2023-04-01T01:37:38;11.73;;;6.20;;
36315;SDS011;22343;50.820;2.666;2023-04-01T01:40:25;11.23;;;6.30;;
36315;SDS011;22343;50.820;2.666;2023-04-01T01:43:12;13.60;;;6.47;;
36315;SDS011;22343;50.820;2.666;2023-04-01T01:45:59;13.73;;;6.70;;
36315;SDS011;22343;50.820;2.666;2023-04-01T01:48:46;12.63;;;5.70;;
36315;SDS011;22343;50.820;2.666;2023-04-01T01:51:32;13.03;;;6.27;;
36315;SDS011;22343;50.820;2.666;2023-04-01T01:54:16;11.63;;;6.23;;
36315;SDS011;22343;50.820;2.666;2023-04-01T01:57:06;9.27;;;5.53;;
36315;SDS011;22343;50.820;2.666;2023-04-01T01:59:52;9.50;;;5.57;;
36315;SDS011;22343;50.820;2.666;2023-04-01T02:02:44;11.40;;;6.13;;
36315;SDS011;22343;50.820;2.666;2023-04-01T02:05:30;12.73;;;5.97;;
36315;SDS011;22343;50.820;2.666;2023-04-01T02:08:16;11.43;;;6.30;;
36315;SDS011;22343;50.820;2.666;2023-04-01T02:11:05;9.87;;;5.83;;
36315;SDS011;22343;50.820;2.666;2023-04-01T02:13:54;9.57;;;6.03;;
36315;SDS011;22343;50.820;2.666;2023-04-01T02:16:54;9.97;;;5.90;;
36315;SDS011;22343;50.820;2.666;2023-04-01T02:19:49;10.57;;;6.70;;
36315;SDS011;22343;50.820;2.666;2023-04-01T02:22:54;10.73;;;6.70;;
36315;SDS011;22343;50.820;2.666;2023-04-01T02:25:40;11.60;;;7.27;;
36315;SDS011;22343;50.820;2.666;2023-04-01T02:28:25;12.10;;;7.30;;
36315;SDS011;22343;50.820;2.666;2023-04-01T02:31:11;11.13;;;7.23;;
36315;SDS011;22343;50.820;2.666;2023-04-01T02:33:56;11.87;;;7.30;;
36315;SDS011;22343;50.820;2.666;2023-04-01T02:36:41;13.40;;;7.33;;
36315;SDS011;22343;50.820;2.666;2023-04-01T02:39:26;13.47;;;7.30;;
36315;SDS011;22343;50.820;2.666;2023-04-01T02:42:11;12.93;;;7.47;;
36315;SDS011;22343;50.820;2.666;2023-04-01T02:44:56;10.10;;;6.83;;
36315;SDS011;22343;50.820;2.666;2023-04-01T02:47:41;12.27;;;7.30;;
36315;SDS011;22343;50.820;2.666;2023-04-01T02:50:25;12.03;;;7.40;;
36315;SDS011;22343;50.820;2.666;2023-04-01T02:53:09;12.57;;;7.10;;
36315;SDS011;22343;50.820;2.666;2023-04-01T02:55:55;13.43;;;7.40;;
36315;SDS011;22343;50.820;2.666;2023-04-01T02:58:40;13.13;;;7.50;;
36315;SDS011;22343;50.820;2.666;2023-04-01T03:01:24;10.77;;;6.43;;
36315;SDS011;22343;50.820;2.666;2023-04-01T03:04:09;12.27;;;6.97;;
36315;SDS011;22343;50.820;2.666;2023-04-01T03:06:53;9.53;;;6.43;;
36315;SDS011;22343;50.820;2.666;2023-04-01T03:09:38;11.70;;;7.27;;
36315;SDS011;22343;50.820;2.666;2023-04-01T03:12:22;13.60;;;7.17;;
36315;SDS011;22343;50.820;2.666;2023-04-01T03:15:08;12.73;;;7.40;;
36315;SDS011;22343;50.820;2.666;2023-04-01T03:17:54;10.30;;;6.87;;
36315;SDS011;22343;50.820;2.666;2023-04-01T03:20:39;11.90;;;7.20;;
36315;SDS011;22343;50.820;2.666;2023-04-01T03:23:23;11.07;;;7.20;;
36315;SDS011;22343;50.820;2.666;2023-04-01T03:26:08;10.73;;;7.33;;
36315;SDS011;22343;50.820;2.666;2023-04-01T03:28:52;9.43;;;6.73;;
36315;SDS011;22343;50.820;2.666;2023-04-01T03:31:37;10.30;;;6.77;;
36315;SDS011;22343;50.820;2.666;2023-04-01T03:34:21;12.03;;;6.87;;
36315;SDS011;22343;50.820;2.666;2023-04-01T03:37:06;11.33;;;7.27;;
36315;SDS011;22343;50.820;2.666;2023-04-01T03:39:50;14.47;;;7.60;;
36315;SDS011;22343;50.820;2.666;2023-04-01T03:42:34;12.20;;;7.40;;
36315;SDS011;22343;50.820;2.666;2023-04-01T03:45:19;14.33;;;7.90;;
36315;SDS011;22343;50.820;2.666;2023-04-01T03:48:04;13.87;;;8.23;;
36315;SDS011;22343;50.820;2.666;2023-04-01T03:50:48;10.63;;;7.33;;
36315;SDS011;22343;50.820;2.666;2023-04-01T03:53:33;12.90;;;8.40;;
36315;SDS011;22343;50.820;2.666;2023-04-01T03:56:17;11.53;;;8.40;;
36315;SDS011;22343;50.820;2.666;2023-04-01T03:59:03;12.10;;;8.50;;
36315;SDS011;22343;50.820;2.666;2023-04-01T04:01:48;13.10;;;8.77;;
36315;SDS011;22343;50.820;2.666;2023-04-01T04:04:33;12.60;;;8.53;;
36315;SDS011;22343;50.820;2.666;2023-04-01T04:07:17;16.00;;;8.33;;
36315;SDS011;22343;50.820;2.666;2023-04-01T04:10:02;13.70;;;8.60;;
36315;SDS011;22343;50.820;2.666;2023-04-01T04:12:48;13.43;;;8.73;;
36315;SDS011;22343;50.820;2.666;2023-04-01T04:15:33;12.43;;;8.17;;
36315;SDS011;22343;50.820;2.666;2023-04-01T04:18:17;13.10;;;8.50;;
36315;SDS011;22343;50.820;2.666;2023-04-01T04:21:02;12.37;;;8.33;;
36315;SDS011;22343;50.820;2.666;2023-04-01T04:23:46;13.43;;;8.50;;
36315;SDS011;22343;50.820;2.666;2023-04-01T04:26:31;11.70;;;8.93;;
36315;SDS011;22343;50.820;2.666;2023-04-01T04:29:15;11.63;;;8.20;;
36315;SDS011;22343;50.820;2.666;2023-04-01T04:31:59;11.73;;;8.63;;
36315;SDS011;22343;50.820;2.666;2023-04-01T04:34:44;12.33;;;8.47;;
36315;SDS011;22343;50.820;2.666;2023-04-01T04:37:28;13.43;;;7.13;;
36315;SDS011;22343;50.820;2.666;2023-04-01T04:40:12;12.63;;;7.80;;
36315;SDS011;22343;50.820;2.666;2023-04-01T04:42:56;9.73;;;7.80;;
36315;SDS011;22343;50.820;2.666;2023-04-01T04:45:41;9.17;;;7.20;;
36315;SDS011;22343;50.820;2.666;2023-04-01T04:48:26;9.60;;;7.37;;
36315;SDS011;22343;50.820;2.666;2023-04-01T04:51:19;10.03;;;7.20;;
36315;SDS011;22343;50.820;2.666;2023-04-01T04:54:05;10.37;;;7.13;;
36315;SDS011;22343;50.820;2.666;2023-04-01T04:56:53;9.57;;;7.60;;
36315;SDS011;22343;50.820;2.666;2023-04-01T04:59:38;9.80;;;7.37;;
36315;SDS011;22343;50.820;2.666;2023-04-01T05:02:22;9.63;;;7.50;;
36315;SDS011;22343;50.820;2.666;2023-04-01T05:05:07;10.70;;;7.53;;
36315;SDS011;22343;50.820;2.666;2023-04-01T05:07:51;9.77;;;7.20;;
36315;SDS011;22343;50.820;2.666;2023-04-01T05:10:36;9.40;;;6.67;;
36315;SDS011;22343;50.820;2.666;2023-04-01T05:13:20;10.83;;;6.77;;
36315;SDS011;22343;50.820;2.666;2023-04-01T05:16:07;7.30;;;5.77;;
36315;SDS011;22343;50.820;2.666;2023-04-01T05:18:53;9.23;;;7.10;;
36315;SDS011;22343;50.820;2.666;2023-04-01T05:21:37;10.47;;;6.53;;
36315;SDS011;22343;50.820;2.666;2023-04-01T05:24:22;10.13;;;7.50;;
36315;SDS011;22343;50.820;2.666;2023-04-01T05:27:06;11.13;;;7.77;;
36315;SDS011;22343;50.820;2.666;2023-04-01T05:29:50;10.27;;;7.93;;
36315;SDS011;22343;50.820;2.666;2023-04-01T05:32:35;10.80;;;8.20;;
36315;SDS011;22343;50.820;2.666;2023-04-01T05:35:19;11.73;;;8.00;;
36315;SDS011;22343;50.820;2.666;2023-04-01T05:38:03;10.60;;;7.37;;
36315;SDS011;22343;50.820;2.666;2023-04-01T05:40:48;12.67;;;7.53;;
36315;SDS011;22343;50.820;2.666;2023-04-01T05:43:32;10.13;;;7.60;;
36315;SDS011;22343;50.820;2.666;2023-04-01T05:46:20;9.60;;;7.10;;
36315;SDS011;22343;50.820;2.666;2023-04-01T05:49:04;13.27;;;7.77;;
36315;SDS011;22343;50.820;2.666;2023-04-01T05:51:48;10.67;;;7.80;;
36315;SDS011;22343;50.820;2.666;2023-04-01T05:54:33;11.27;;;8.13;;
36315;SDS011;22343;50.820;2.666;2023-04-01T05:57:17;12.60;;;9.20;;
36315;SDS011;22343;50.820;2.666;2023-04-01T06:00:02;10.80;;;7.77;;
36315;SDS011;22343;50.820;2.666;2023-04-01T06:02:48;11.03;;;8.30;;
36315;SDS011;22343;50.820;2.666;2023-04-01T06:05:42;10.80;;;8.40;;
36315;SDS011;22343;50.820;2.666;2023-04-01T06:08:27;12.50;;;7.73;;
36315;SDS011;22343;50.820;2.666;2023-04-01T06:20:53;8.97;;;6.93;;
36315;SDS011;22343;50.820;2.666;2023-04-01T06:38:08;6.80;;;4.93;;
36315;SDS011;22343;50.820;2.666;2023-04-01T06:50:26;9.47;;;5.50;;
36315;SDS011;22343;50.820;2.666;2023-04-01T06:53:19;6.00;;;4.93;;
36315;SDS011;22343;50.820;2.666;2023-04-01T06:56:11;7.73;;;4.60;;
36315;SDS011;22343;50.820;2.666;2023-04-01T06:58:59;7.73;;;4.90;;
36315;SDS011;22343;50.820;2.666;2023-04-01T07:01:48;5.93;;;4.67;;
36315;SDS011;22343;50.820;2.666;2023-04-01T07:04:35;5.63;;;4.33;;
36315;SDS011;22343;50.820;2.666;2023-04-01T07:10:35;5.73;;;4.33;;
36315;SDS011;22343;50.820;2.666;2023-04-01T07:13:31;7.60;;;5.17;;
36315;SDS011;22343;50.820;2.666;2023-04-01T07:19:16;7.70;;;5.03;;
36315;SDS011;22343;50.820;2.666;2023-04-01T07:22:26;9.80;;;6.47;;
36315;SDS011;22343;50.820;2.666;2023-04-01T07:25:24;7.57;;;5.87;;
36315;SDS011;22343;50.820;2.666;2023-04-01T07:28:12;10.60;;;7.37;;
36315;SDS011;22343;50.820;2.666;2023-04-01T07:36:51;7.93;;;4.17;;
36315;SDS011;22343;50.820;2.666;2023-04-01T07:43:02;4.80;;;3.43;;
36315;SDS011;22343;50.820;2.666;2023-04-01T07:49:15;4.93;;;4.20;;
36315;SDS011;22343;50.820;2.666;2023-04-01T07:55:23;6.53;;;5.00;;
36315;SDS011;22343;50.820;2.666;2023-04-01T08:06:59;7.40;;;6.70;;
36315;SDS011;22343;50.820;2.666;2023-04-01T08:16:17;2.43;;;2.23;;
36315;SDS011;22343;50.820;2.666;2023-04-01T08:19:13;2.67;;;2.03;;
36315;SDS011;22343;50.820;2.666;2023-04-01T08:22:21;2.10;;;1.70;;
36315;SDS011;22343;50.820;2.666;2023-04-01T08:25:13;2.43;;;2.10;;
36315;SDS011;22343;50.820;2.666;2023-04-01T08:28:10;2.30;;;2.10;;
36315;SDS011;22343;50.820;2.666;2023-04-01T08:31:04;2.77;;;2.43;;
36315;SDS011;22343;50.820;2.666;2023-04-01T08:33:53;3.00;;;2.60;;
36315;SDS011;22343;50.820;2.666;2023-04-01T08:36:38;2.60;;;2.40;;
36315;SDS011;22343;50.820;2.666;2023-04-01T08:39:37;2.50;;;2.20;;
36315;SDS011;22343;50.820;2.666;2023-04-01T08:42:42;2.50;;;1.90;;
36315;SDS011;22343;50.820;2.666;2023-04-01T08:51:37;3.37;;;1.60;;
36315;SDS011;22343;50.820;2.666;2023-04-01T09:00:37;1.87;;;1.73;;
36315;SDS011;22343;50.820;2.666;2023-04-01T09:07:40;3.97;;;2.73;;
36315;SDS011;22343;50.820;2.666;2023-04-01T09:20:07;3.60;;;2.87;;
36315;SDS011;22343;50.820;2.666;2023-04-01T09:29:29;2.50;;;2.30;;
36315;SDS011;22343;50.820;2.666;2023-04-01T09:40:54;3.10;;;2.33;;
36315;SDS011;22343;50.820;2.666;2023-04-01T09:43:44;5.17;;;3.40;;
36315;SDS011;22343;50.820;2.666;2023-04-01T09:53:19;8.00;;;5.83;;
36315;SDS011;22343;50.820;2.666;2023-04-01T09:59:32;7.37;;;4.67;;
36315;SDS011;22343;50.820;2.666;2023-04-01T10:02:49;4.77;;;3.50;;
36315;SDS011;22343;50.820;2.666;2023-04-01T10:48:51;7.07;;;4.13;;
36315;SDS011;22343;50.820;2.666;2023-04-01T11:10:57;3.47;;;2.10;;
36315;SDS011;22343;50.820;2.666;2023-04-01T11:19:49;3.97;;;2.30;;
36315;SDS011;22343;50.820;2.666;2023-04-01T11:23:28;4.30;;;3.00;;
36315;SDS011;22343;50.820;2.666;2023-04-01T11:28:57;4.20;;;3.40;;
36315;SDS011;22343;50.820;2.666;2023-04-01T11:31:54;6.03;;;3.70;;
36315;SDS011;22343;50.820;2.666;2023-04-01T11:35:22;6.57;;;4.50;;
36315;SDS011;22343;50.820;2.666;2023-04-01T11:44:03;3.67;;;2.67;;
36315;SDS011;22343;50.820;2.666;2023-04-01T11:52:55;5.40;;;3.23;;
36315;SDS011;22343;50.820;2.666;2023-04-01T12:02:42;4.97;;;3.70;;
36315;SDS011;22343;50.820;2.666;2023-04-01T12:08:46;3.60;;;3.17;;
36315;SDS011;22343;50.820;2.666;2023-04-01T12:26:29;2.93;;;1.70;;
36315;SDS011;22343;50.820;2.666;2023-04-01T12:51:30;4.07;;;3.43;;
36315;SDS011;22343;50.820;2.666;2023-04-01T13:00:17;4.77;;;3.03;;
36315;SDS011;22343;50.820;2.666;2023-04-01T13:13:34;5.33;;;2.90;;
36315;SDS011;22343;50.820;2.666;2023-04-01T13:16:08;4.80;;;3.50;;
36315;SDS011;22343;50.820;2.666;2023-04-01T13:22:23;4.20;;;3.70;;
36315;SDS011;22343;50.820;2.666;2023-04-01T13:28:25;6.53;;;4.67;;
36315;SDS011;22343;50.820;2.666;2023-04-01T13:41:03;6.77;;;4.90;;
36315;SDS011;22343;50.820;2.666;2023-04-01T13:43:58;8.63;;;5.10;;
36315;SDS011;22343;50.820;2.666;2023-04-01T13:50:46;10.50;;;5.13;;
36315;SDS011;22343;50.820;2.666;2023-04-01T13:54:27;5.27;;;4.13;;
36315;SDS011;22343;50.820;2.666;2023-04-01T13:57:21;6.70;;;5.20;;
36315;SDS011;22343;50.820;2.666;2023-04-01T14:00:19;6.03;;;3.90;;
36315;SDS011;22343;50.820;2.666;2023-04-01T14:24:53;7.90;;;5.70;;
36315;SDS011;22343;50.820;2.666;2023-04-01T14:34:23;5.13;;;2.97;;
36315;SDS011;22343;50.820;2.666;2023-04-01T14:43:19;9.43;;;2.23;;
36315;SDS011;22343;50.820;2.666;2023-04-01T14:52:26;3.70;;;1.80;;
36315;SDS011;22343;50.820;2.666;2023-04-01T14:55:20;2.77;;;1.70;;
36315;SDS011;22343;50.820;2.666;2023-04-01T14:58:40;4.03;;;1.93;;
36315;SDS011;22343;50.820;2.666;2023-04-01T15:01:37;5.37;;;2.50;;
36315;SDS011;22343;50.820;2.666;2023-04-01T15:07:50;6.73;;;3.90;;
36315;SDS011;22343;50.820;2.666;2023-04-01T15:29:38;4.63;;;3.23;;
36315;SDS011;22343;50.820;2.666;2023-04-01T15:32:37;5.47;;;3.03;;
36315;SDS011;22343;50.820;2.666;2023-04-01T15:35:44;6.37;;;3.30;;
36315;SDS011;22343;50.820;2.666;2023-04-01T15:41:35;5.83;;;2.87;;
36315;SDS011;22343;50.820;2.666;2023-04-01T15:44:54;4.70;;;2.67;;
36315;SDS011;22343;50.820;2.666;2023-04-01T15:47:45;5.43;;;2.83;;
36315;SDS011;22343;50.820;2.666;2023-04-01T15:53:34;5.67;;;2.87;;
36315;SDS011;22343;50.820;2.666;2023-04-01T15:56:42;4.43;;;2.40;;
36315;SDS011;22343;50.820;2.666;2023-04-01T16:02:49;3.83;;;2.40;;
36315;SDS011;22343;50.820;2.666;2023-04-01T16:07:02;4.20;;;2.43;;
36315;SDS011;22343;50.820;2.666;2023-04-01T16:12:53;5.23;;;2.70;;
36315;SDS011;22343;50.820;2.666;2023-04-01T16:27:33;5.50;;;3.23;;
36315;SDS011;22343;50.820;2.666;2023-04-01T16:30:35;3.10;;;2.00;;
36315;SDS011;22343;50.820;2.666;2023-04-01T16:33:22;3.67;;;2.07;;
36315;SDS011;22343;50.820;2.666;2023-04-01T16:39:52;6.47;;;2.00;;
36315;SDS011;22343;50.820;2.666;2023-04-01T16:45:38;3.53;;;1.73;;
36315;SDS011;22343;50.820;2.666;2023-04-01T16:49:16;1.90;;;1.53;;
36315;SDS011;22343;50.820;2.666;2023-04-01T16:51:48;4.63;;;1.57;;
36315;SDS011;22343;50.820;2.666;2023-04-01T16:54:53;5.13;;;2.00;;
36315;SDS011;22343;50.820;2.666;2023-04-01T16:57:51;3.00;;;1.97;;
36315;SDS011;22343;50.820;2.666;2023-04-01T17:00:38;3.77;;;1.93;;
36315;SDS011;22343;50.820;2.666;2023-04-01T17:03:44;3.80;;;1.57;;
36315;SDS011;22343;50.820;2.666;2023-04-01T17:22:03;2.77;;;1.73;;
36315;SDS011;22343;50.820;2.666;2023-04-01T17:25:02;7.67;;;3.40;;
36315;SDS011;22343;50.820;2.666;2023-04-01T17:40:24;1.90;;;1.03;;
36315;SDS011;22343;50.820;2.666;2023-04-01T17:43:22;2.53;;;1.57;;
36315;SDS011;22343;50.820;2.666;2023-04-01T17:49:49;6.40;;;1.80;;
36315;SDS011;22343;50.820;2.666;2023-04-01T17:58:46;3.27;;;1.77;;
36315;SDS011;22343;50.820;2.666;2023-04-01T18:01:58;3.17;;;1.20;;
36315;SDS011;22343;50.820;2.666;2023-04-01T18:08:09;1.73;;;1.40;;
36315;SDS011;22343;50.820;2.666;2023-04-01T18:11:22;4.80;;;2.13;;
36315;SDS011;22343;50.820;2.666;2023-04-01T18:17:39;3.90;;;1.73;;
36315;SDS011;22343;50.820;2.666;2023-04-01T18:20:42;2.80;;;1.30;;
36315;SDS011;22343;50.820;2.666;2023-04-01T18:23:53;4.27;;;2.00;;
36315;SDS011;22343;50.820;2.666;2023-04-01T18:26:46;4.07;;;2.17;;
36315;SDS011;22343;50.820;2.666;2023-04-01T18:36:02;4.57;;;2.10;;
36315;SDS011;22343;50.820;2.666;2023-04-01T18:39:00;5.00;;;2.83;;
36315;SDS011;22343;50.820;2.666;2023-04-01T18:41:51;4.43;;;2.30;;
36315;SDS011;22343;50.820;2.666;2023-04-01T18:48:03;7.03;;;3.00;;
36315;SDS011;22343;50.820;2.666;2023-04-01T18:50:56;3.67;;;2.47;;
36315;SDS011;22343;50.820;2.666;2023-04-01T18:53:48;7.33;;;3.03;;
36315;SDS011;22343;50.820;2.666;2023-04-01T18:56:38;8.53;;;3.33;;
36315;SDS011;22343;50.820;2.666;2023-04-01T18:59:38;3.63;;;2.60;;
36315;SDS011;22343;50.820;2.666;2023-04-01T19:02:31;7.83;;;4.03;;
36315;SDS011;22343;50.820;2.666;2023-04-01T19:05:23;6.17;;;2.87;;
36315;SDS011;22343;50.820;2.666;2023-04-01T19:17:03;4.93;;;2.13;;
36315;SDS011;22343;50.820;2.666;2023-04-01T19:26:27;4.97;;;2.80;;
36315;SDS011;22343;50.820;2.666;2023-04-01T19:38:12;6.97;;;2.73;;
36315;SDS011;22343;50.820;2.666;2023-04-01T19:44:33;6.87;;;2.70;;
36315;SDS011;22343;50.820;2.666;2023-04-01T19:47:29;3.97;;;2.10;;
36315;SDS011;22343;50.820;2.666;2023-04-01T19:56:41;5.40;;;2.80;;
36315;SDS011;22343;50.820;2.666;2023-04-01T20:25:40;7.37;;;3.40;;
36315;SDS011;22343;50.820;2.666;2023-04-01T20:31:55;7.67;;;4.83;;
36315;SDS011;22343;50.820;2.666;2023-04-01T20:41:23;6.80;;;3.70;;
36315;SDS011;22343;50.820;2.666;2023-04-01T20:44:12;13.10;;;4.90;;
36315;SDS011;22343;50.820;2.666;2023-04-01T20:52:38;10.07;;;4.83;;
36315;SDS011;22343;50.820;2.666;2023-04-01T21:08:36;11.33;;;5.50;;
36315;SDS011;22343;50.820;2.666;2023-04-01T21:19:49;23.70;;;9.33;;
36315;SDS011;22343;50.820;2.666;2023-04-01T21:26:00;11.20;;;5.40;;
36315;SDS011;22343;50.820;2.666;2023-04-01T21:40:50;13.53;;;7.37;;
36315;SDS011;22343;50.820;2.666;2023-04-01T22:05:06;21.13;;;8.83;;
36315;SDS011;22343;50.820;2.666;2023-04-01T22:14:31;21.20;;;9.30;;
36315;SDS011;22343;50.820;2.666;2023-04-01T22:34:57;7.10;;;4.90;;
36315;SDS011;22343;50.820;2.666;2023-04-01T22:38:11;13.27;;;5.97;;
36315;SDS011;22343;50.820;2.666;2023-04-01T22:41:20;14.80;;;7.07;;
36315;SDS011;22343;50.820;2.666;2023-04-01T22:44:13;13.80;;;6.33;;
36315;SDS011;22343;50.820;2.666;2023-04-01T22:50:44;21.93;;;8.87;;
36315;SDS011;22343;50.820;2.666;2023-04-01T22:56:36;17.50;;;9.40;;
36315;SDS011;22343;50.820;2.666;2023-04-01T22:59:35;16.67;;;7.33;;
36315;SDS011;22343;50.820;2.666;2023-04-01T23:02:25;17.73;;;7.97;;
36315;SDS011;22343;50.820;2.666;2023-04-01T23:05:13;11.77;;;6.60;;
36315;SDS011;22343;50.820;2.666;2023-04-01T23:08:19;13.67;;;7.50;;
36315;SDS011;22343;50.820;2.666;2023-04-01T23:17:11;13.23;;;7.73;;
36315;SDS011;22343;50.820;2.666;2023-04-01T23:20:09;12.10;;;6.07;;
36315;SDS011;22343;50.820;2.666;2023-04-01T23:26:09;15.97;;;7.73;;
36315;SDS011;22343;50.820;2.666;2023-04-01T23:28:56;15.87;;;8.23;;
36315;SDS011;22343;50.820;2.666;2023-04-01T23:31:41;20.80;;;10.80;;
36315;SDS011;22343;50.820;2.666;2023-04-01T23:34:36;11.07;;;6.30;;
36315;SDS011;22343;50.820;2.666;2023-04-01T23:37:20;13.70;;;7.67;;
36315;SDS011;22343;50.820;2.666;2023-04-01T23:40:06;16.20;;;7.00;;
36315;SDS011;22343;50.820;2.666;2023-04-01T23:42:56;16.10;;;8.50;;
36315;SDS011;22343;50.820;2.666;2023-04-01T23:45:41;14.97;;;7.63;;
36315;SDS011;22343;50.820;2.666;2023-04-01T23:48:29;21.93;;;9.53;;
36315;SDS011;22343;50.820;2.666;2023-04-01T23:51:18;14.37;;;7.93;;
36315;SDS011;22343;50.820;2.666;2023-04-01T23:54:04;16.20;;;8.97;;
36315;SDS011;22343;50.820;2.666;2023-04-01T23:57:14;18.60;;;9.33;;
